createdAt,value
2022-11-05T00:00:47.092Z,100963.00
2022-11-05T00:03:41.929Z,100963.69
2022-11-05T00:06:29.253Z,100962.19
2022-11-05T00:09:21.272Z,100969.06
2022-11-05T00:12:07.940Z,100962.13
2022-11-05T00:14:55.934Z,100968.41
2022-11-05T00:17:24.883Z,100971.00
2022-11-05T00:19:53.854Z,100980.41
2022-11-05T00:22:40.611Z,100975.56
2022-11-05T00:25:16.890Z,100975.38
2022-11-05T00:27:47.252Z,100980.41
2022-11-05T00:30:19.702Z,100981.06
2022-11-05T00:32:50.161Z,100981.31
2022-11-05T00:35:20.819Z,100994.16
2022-11-05T00:37:50.478Z,100992.03
2022-11-05T00:40:19.856Z,100991.34
2022-11-05T00:43:06.500Z,100995.34
2022-11-05T00:45:37.755Z,100999.25
2022-11-05T00:48:24.842Z,100998.94
2022-11-05T00:50:53.825Z,101010.13
2022-11-05T00:53:22.859Z,101007.03
2022-11-05T00:55:51.772Z,101000.88
2022-11-05T00:58:22.309Z,101013.78
2022-11-05T01:00:54.692Z,101019.19
2022-11-05T01:03:27.559Z,101015.88
2022-11-05T01:05:58.800Z,101019.13
2022-11-05T01:08:29.120Z,101025.19
2022-11-05T01:10:59.467Z,101022.03
2022-11-05T01:13:29.897Z,101028.34
2022-11-05T01:16:05.904Z,101023.69
2022-11-05T01:18:34.929Z,101019.06
2022-11-05T01:21:11.998Z,101028.91
2022-11-05T01:23:41.100Z,101029.50
2022-11-05T01:26:10.155Z,101033.00
2022-11-05T01:28:39.163Z,101028.34
2022-11-05T01:31:09.635Z,101033.19
2022-11-05T01:33:38.595Z,101034.22
2022-11-05T01:36:08.007Z,101026.09
2022-11-05T01:38:37.771Z,101021.88
2022-11-05T01:41:07.519Z,101026.50
2022-11-05T01:43:49.348Z,101017.66
2022-11-05T01:46:24.693Z,101019.59
2022-11-05T01:49:01.735Z,101017.09
2022-11-05T01:51:32.263Z,101017.53
2022-11-05T01:54:05.027Z,101031.84
2022-11-05T01:56:38.997Z,101031.44
2022-11-05T01:59:15.204Z,101030.91
2022-11-05T02:01:46.033Z,101020.97
2022-11-05T02:04:20.653Z,101027.47
2022-11-05T02:06:49.608Z,101031.56
2022-11-05T02:09:24.165Z,101030.41
2022-11-05T02:11:53.500Z,101034.88
2022-11-05T02:14:22.591Z,101034.88
2022-11-05T02:16:58.522Z,101034.81
2022-11-05T02:20:04.689Z,101035.06
2022-11-05T02:23:16.588Z,101039.38
2022-11-05T02:26:22.872Z,101028.63
2022-11-05T02:29:19.403Z,101038.66
2022-11-05T02:31:58.919Z,101036.47
2022-11-05T02:34:34.420Z,101027.13
2022-11-05T02:37:13.030Z,101037.94
2022-11-05T02:39:49.353Z,101030.22
2022-11-05T02:42:31.514Z,101035.53
2022-11-05T02:45:10.454Z,101031.81
2022-11-05T02:47:45.705Z,101039.88
2022-11-05T02:50:21.108Z,101044.69
2022-11-05T02:52:59.979Z,101039.81
2022-11-05T02:55:34.463Z,101038.50
2022-11-05T02:58:05.130Z,101038.56
2022-11-05T03:00:49.215Z,101037.25
2022-11-05T03:03:30.286Z,101036.56
2022-11-05T03:06:27.191Z,101042.03
2022-11-05T03:09:13.512Z,101037.94
2022-11-05T03:11:52.178Z,101039.44
2022-11-05T03:14:30.730Z,101040.53
2022-11-05T03:17:06.007Z,101038.63
2022-11-05T03:19:44.096Z,101037.78
2022-11-05T03:22:18.925Z,101047.28
2022-11-05T03:24:55.270Z,101052.78
2022-11-05T03:27:28.771Z,101054.03
2022-11-05T03:30:02.990Z,101054.97
2022-11-05T03:32:36.738Z,101057.06
2022-11-05T03:35:13.326Z,101050.44
2022-11-05T03:37:44.744Z,101060.41
2022-11-05T03:40:16.359Z,101058.81
2022-11-05T03:42:49.363Z,101062.75
2022-11-05T03:45:22.627Z,101060.75
2022-11-05T03:47:53.886Z,101062.28
2022-11-05T03:50:34.751Z,101070.47
2022-11-05T03:53:14.771Z,101068.38
2022-11-05T03:55:50.778Z,101078.84
2022-11-05T03:58:22.975Z,101081.72
2022-11-05T04:00:52.744Z,101076.59
2022-11-05T04:03:21.939Z,101077.75
2022-11-05T04:06:06.440Z,101083.22
2022-11-05T04:08:52.806Z,101075.44
2022-11-05T04:11:39.351Z,101072.06
2022-11-05T04:14:08.287Z,101076.59
2022-11-05T04:16:55.045Z,101076.50
2022-11-05T04:19:37.926Z,101083.53
2022-11-05T04:22:25.594Z,101087.69
2022-11-05T04:24:54.498Z,101084.44
2022-11-05T04:27:23.477Z,101102.53
2022-11-05T04:30:09.959Z,101088.03
2022-11-05T04:32:38.880Z,101085.63
2022-11-05T04:35:08.049Z,101096.47
2022-11-05T04:37:38.367Z,101091.63
2022-11-05T04:40:08.499Z,101099.53
2022-11-05T04:42:37.823Z,101103.81
2022-11-05T04:45:07.285Z,101106.59
2022-11-05T04:47:36.380Z,101105.69
2022-11-05T04:50:05.479Z,101116.38
2022-11-05T04:52:34.404Z,101115.88
2022-11-05T04:55:04.933Z,101108.09
2022-11-05T04:57:33.858Z,101114.19
2022-11-05T05:00:03.126Z,101116.09
2022-11-05T05:02:32.071Z,101114.88
2022-11-05T05:05:01.001Z,101114.28
2022-11-05T05:07:29.904Z,101117.72
2022-11-05T05:09:58.839Z,101123.09
2022-11-05T05:12:29.572Z,101121.13
2022-11-05T05:14:58.477Z,101122.16
2022-11-05T05:17:27.706Z,101120.47
2022-11-05T05:20:14.425Z,101122.16
2022-11-05T05:22:43.342Z,101119.47
2022-11-05T05:25:12.247Z,101114.53
2022-11-05T05:27:42.526Z,101112.63
2022-11-05T05:30:12.344Z,101110.09
2022-11-05T05:32:41.359Z,101128.66
2022-11-05T05:35:10.860Z,101126.38
2022-11-05T05:37:39.824Z,101124.97
2022-11-05T05:40:10.067Z,101136.03
2022-11-05T05:42:43.164Z,101137.00
2022-11-05T05:45:14.375Z,101138.41
2022-11-05T05:47:43.267Z,101132.25
2022-11-05T05:50:12.225Z,101135.75
2022-11-05T05:52:41.150Z,101144.78
2022-11-05T05:55:12.560Z,101149.13
2022-11-05T05:57:41.489Z,101150.41
2022-11-05T06:00:13.800Z,101157.41
2022-11-05T06:02:43.058Z,101153.69
2022-11-05T06:05:12.072Z,101152.06
2022-11-05T06:07:41.014Z,101157.06
2022-11-05T06:10:10.463Z,101154.28
2022-11-05T06:12:39.382Z,101159.09
2022-11-05T06:15:08.888Z,101161.09
2022-11-05T06:17:39.193Z,101168.94
2022-11-05T06:20:09.543Z,101171.59
2022-11-05T06:22:38.460Z,101177.69
2022-11-05T06:25:08.683Z,101176.63
2022-11-05T06:27:37.760Z,101181.03
2022-11-05T06:30:07.636Z,101174.50
2022-11-05T06:32:37.900Z,101176.41
2022-11-05T06:35:07.239Z,101184.72
2022-11-05T06:37:36.201Z,101179.06
2022-11-05T06:40:05.666Z,101184.25
2022-11-05T06:42:34.793Z,101191.28
2022-11-05T06:45:03.771Z,101194.03
2022-11-05T06:47:32.671Z,101198.91
2022-11-05T06:50:02.919Z,101197.16
2022-11-05T06:52:33.955Z,101193.25
2022-11-05T06:55:06.567Z,101194.44
2022-11-05T06:57:37.885Z,101192.41
2022-11-05T07:00:08.545Z,101192.53
2022-11-05T07:02:37.506Z,101193.63
2022-11-05T07:05:11.045Z,101193.09
2022-11-05T07:07:40.773Z,101207.19
2022-11-05T07:10:12.597Z,101198.91
2022-11-05T07:12:41.588Z,101205.25
2022-11-05T07:15:12.010Z,101200.97
2022-11-05T07:17:41.477Z,101211.50
2022-11-05T07:20:12.642Z,101207.91
2022-11-05T07:22:41.566Z,101211.78
2022-11-05T07:25:10.872Z,101213.81
2022-11-05T07:27:40.568Z,101217.94
2022-11-05T07:30:10.838Z,101211.41
2022-11-05T07:32:41.101Z,101215.56
2022-11-05T07:35:12.360Z,101225.66
2022-11-05T07:37:45.297Z,101221.97
2022-11-05T07:40:15.884Z,101228.94
2022-11-05T07:42:45.250Z,101228.56
2022-11-05T07:45:14.928Z,101238.56
2022-11-05T07:47:48.625Z,101240.72
2022-11-05T07:50:21.368Z,101243.91
2022-11-05T07:52:51.135Z,101242.13
2022-11-05T07:55:21.219Z,101245.91
2022-11-05T07:57:51.774Z,101247.69
2022-11-05T08:00:22.260Z,101255.69
2022-11-05T08:03:08.558Z,101248.47
2022-11-05T08:05:44.372Z,101253.25
2022-11-05T08:08:15.155Z,101246.16
2022-11-05T08:10:44.433Z,101243.53
2022-11-05T08:13:14.176Z,101249.41
2022-11-05T08:15:43.616Z,101236.41
2022-11-05T08:18:14.664Z,101237.88
2022-11-05T08:20:46.187Z,101247.25
2022-11-05T08:23:15.576Z,101247.25
2022-11-05T08:25:44.683Z,101249.88
2022-11-05T08:28:14.260Z,101249.94
2022-11-05T08:30:43.388Z,101259.22
2022-11-05T08:33:14.191Z,101261.03
2022-11-05T08:35:45.101Z,101255.63
2022-11-05T08:38:15.636Z,101253.66
2022-11-05T08:40:46.241Z,101254.75
2022-11-05T08:43:15.893Z,101262.91
2022-11-05T08:45:44.796Z,101259.19
2022-11-05T08:48:15.845Z,101268.84
2022-11-05T08:50:48.488Z,101267.19
2022-11-05T08:53:17.916Z,101265.75
2022-11-05T08:55:49.903Z,101269.44
2022-11-05T08:58:20.571Z,101258.66
2022-11-05T09:00:51.161Z,101266.59
2022-11-05T09:03:21.723Z,101260.25
2022-11-05T09:05:51.979Z,101265.50
2022-11-05T09:08:21.066Z,101267.75
2022-11-05T09:10:50.666Z,101267.22
2022-11-05T09:13:20.415Z,101272.34
2022-11-05T09:15:49.914Z,101268.19
2022-11-05T09:18:20.273Z,101263.41
2022-11-05T09:20:50.845Z,101267.03
2022-11-05T09:23:19.806Z,101274.78
2022-11-05T09:25:48.793Z,101271.03
2022-11-05T09:28:20.018Z,101276.88
2022-11-05T09:30:51.108Z,101270.59
2022-11-05T09:33:21.897Z,101273.06
2022-11-05T09:35:53.390Z,101277.34
2022-11-05T09:38:22.315Z,101278.59
2022-11-05T09:40:58.619Z,101278.13
2022-11-05T09:43:32.218Z,101281.97
2022-11-05T09:46:05.618Z,101281.59
2022-11-05T09:48:36.472Z,101266.72
2022-11-05T09:51:07.656Z,101283.00
2022-11-05T09:53:40.727Z,101285.41
2022-11-05T09:56:24.644Z,101296.09
2022-11-05T09:58:59.603Z,101296.75
2022-11-05T10:01:32.861Z,101291.78
2022-11-05T10:04:07.025Z,101301.78
2022-11-05T10:06:44.158Z,101297.63
2022-11-05T10:09:19.013Z,101304.19
2022-11-05T10:11:52.639Z,101302.28
2022-11-05T10:14:28.007Z,101301.94
2022-11-05T10:17:04.556Z,101308.78
2022-11-05T10:19:42.501Z,101301.94
2022-11-05T10:22:16.659Z,101304.56
2022-11-05T10:24:48.021Z,101311.16
2022-11-05T10:27:21.002Z,101313.03
2022-11-05T10:29:50.695Z,101311.41
2022-11-05T10:32:28.833Z,101310.91
2022-11-05T10:35:00.730Z,101314.47
2022-11-05T10:37:31.910Z,101309.47
2022-11-05T10:40:01.132Z,101305.31
2022-11-05T10:42:46.537Z,101311.41
2022-11-05T10:45:28.732Z,101316.31
2022-11-05T10:48:20.980Z,101315.44
2022-11-05T10:50:50.493Z,101316.06
2022-11-05T10:53:25.656Z,101319.53
2022-11-05T10:55:54.950Z,101325.22
2022-11-05T10:58:29.009Z,101314.75
2022-11-05T11:01:11.297Z,101314.31
2022-11-05T11:03:45.095Z,101317.34
2022-11-05T11:06:24.121Z,101314.53
2022-11-05T11:08:57.161Z,101316.03
2022-11-05T11:11:33.256Z,101308.19
2022-11-05T11:14:05.462Z,101314.50
2022-11-05T11:16:39.257Z,101319.53
2022-11-05T11:19:27.032Z,101314.84
2022-11-05T11:22:22.906Z,101314.94
2022-11-05T11:24:54.732Z,101312.88
2022-11-05T11:27:27.003Z,101305.91
2022-11-05T11:30:01.899Z,101311.16
2022-11-05T11:32:37.192Z,101306.09
2022-11-05T11:35:08.874Z,101307.19
2022-11-05T11:37:42.036Z,101300.31
2022-11-05T11:40:19.138Z,101314.56
2022-11-05T11:42:51.867Z,101311.69
2022-11-05T11:45:26.452Z,101308.53
2022-11-05T11:47:57.797Z,101305.41
2022-11-05T11:50:40.551Z,101316.09
2022-11-05T11:53:31.350Z,101302.63
2022-11-05T11:56:04.807Z,101312.44
2022-11-05T11:58:43.207Z,101300.44
2022-11-05T12:01:47.522Z,101301.88
2022-11-05T12:04:43.278Z,101306.25
2022-11-05T12:07:29.186Z,101309.06
2022-11-05T12:10:12.555Z,101303.81
2022-11-05T12:12:54.021Z,101302.94
2022-11-05T12:15:35.507Z,101311.06
2022-11-05T12:18:06.773Z,101313.53
2022-11-05T12:21:05.408Z,101308.75
2022-11-05T12:23:55.009Z,101308.91
2022-11-05T12:26:31.874Z,101310.50
2022-11-05T12:29:25.123Z,101315.41
2022-11-05T12:32:15.189Z,101311.22
2022-11-05T12:34:50.970Z,101308.44
2022-11-05T12:37:33.308Z,101315.88
2022-11-05T12:40:43.897Z,101313.13
2022-11-05T12:43:20.857Z,101311.78
2022-11-05T12:45:56.901Z,101317.22
2022-11-05T12:48:49.660Z,101311.84
2022-11-05T12:51:33.091Z,101309.31
2022-11-05T12:54:12.768Z,101320.84
2022-11-05T12:56:46.701Z,101318.38
2022-11-05T12:59:22.282Z,101314.06
2022-11-05T13:01:59.173Z,101307.16
2022-11-05T13:04:39.131Z,101313.69
2022-11-05T13:07:12.098Z,101311.09
2022-11-05T13:09:45.996Z,101319.38
2022-11-05T13:12:17.887Z,101313.63
2022-11-05T13:14:53.806Z,101309.22
2022-11-05T13:17:26.836Z,101314.72
2022-11-05T13:20:01.907Z,101320.19
2022-11-05T13:22:37.931Z,101317.59
2022-11-05T13:25:14.339Z,101315.22
2022-11-05T13:27:58.523Z,101310.78
2022-11-05T13:30:32.494Z,101304.03
2022-11-05T13:33:06.749Z,101300.66
2022-11-05T13:35:45.314Z,101302.59
2022-11-05T13:38:42.205Z,101308.34
2022-11-05T13:41:28.198Z,101298.19
2022-11-05T13:44:20.382Z,101298.19
2022-11-05T13:47:07.389Z,101303.72
2022-11-05T13:49:54.750Z,101300.47
2022-11-05T13:52:41.188Z,101305.00
2022-11-05T13:55:32.092Z,101304.97
2022-11-05T13:58:48.242Z,101321.47
2022-11-05T14:01:29.668Z,101311.47
2022-11-05T14:03:58.758Z,101304.22
2022-11-05T14:06:31.739Z,101297.44
2022-11-05T14:09:03.433Z,101291.78
2022-11-05T14:11:36.738Z,101306.28
2022-11-05T14:14:09.263Z,101297.63
2022-11-05T14:16:51.731Z,101313.00
2022-11-05T14:19:35.899Z,101314.44
2022-11-05T14:22:37.514Z,101302.81
2022-11-05T14:25:40.001Z,101305.53
2022-11-05T14:28:37.652Z,101309.53
2022-11-05T14:31:54.276Z,101305.91
2022-11-05T14:34:41.589Z,101310.03
2022-11-05T14:37:28.184Z,101314.50
2022-11-05T14:40:04.702Z,101312.59
2022-11-05T14:42:33.693Z,101318.78
2022-11-05T14:45:29.126Z,101322.50
2022-11-05T14:47:59.948Z,101321.53
2022-11-05T14:50:40.602Z,101323.34
2022-11-05T14:53:27.082Z,101323.00
2022-11-05T14:56:04.456Z,101324.06
2022-11-05T14:58:36.756Z,101323.34
2022-11-05T15:01:08.165Z,101327.25
2022-11-05T15:04:02.860Z,101325.97
2022-11-05T15:06:36.413Z,101326.53
2022-11-05T15:09:24.180Z,101326.66
2022-11-05T15:12:12.296Z,101321.66
2022-11-05T15:14:50.081Z,101332.03
2022-11-05T15:17:23.727Z,101330.09
2022-11-05T15:19:54.872Z,101331.91
2022-11-05T15:22:30.601Z,101331.91
2022-11-05T15:24:59.833Z,101328.69
2022-11-05T15:28:02.525Z,101327.16
2022-11-05T15:30:31.593Z,101334.88
2022-11-05T15:33:11.070Z,101331.97
2022-11-05T15:35:42.457Z,101333.31
2022-11-05T15:38:29.097Z,101334.59
2022-11-05T15:41:00.219Z,101337.66
2022-11-05T15:43:30.706Z,101337.66
2022-11-05T15:46:08.028Z,101333.94
2022-11-05T15:48:38.034Z,101334.63
2022-11-05T15:51:07.670Z,101336.28
2022-11-05T15:54:23.844Z,101344.75
2022-11-05T15:56:51.128Z,101343.19
2022-11-05T15:59:23.218Z,101340.25
2022-11-05T16:01:56.336Z,101339.41
2022-11-05T16:04:28.359Z,101334.22
2022-11-05T16:07:02.373Z,101337.78
2022-11-05T16:09:34.640Z,101342.47
2022-11-05T16:12:25.958Z,101334.28
2022-11-05T16:15:01.455Z,101331.78
2022-11-05T16:17:34.304Z,101336.69
2022-11-05T16:20:03.313Z,101337.97
2022-11-05T16:22:48.878Z,101332.94
2022-11-05T16:25:30.529Z,101336.22
2022-11-05T16:28:00.861Z,101331.56
2022-11-05T16:30:31.592Z,101346.44
2022-11-05T16:33:07.350Z,101339.03
2022-11-05T16:35:49.045Z,101342.44
2022-11-05T16:38:19.841Z,101341.22
2022-11-05T16:40:48.782Z,101336.63
2022-11-05T16:43:20.833Z,101337.09
2022-11-05T16:45:53.747Z,101351.19
2022-11-05T16:48:22.712Z,101343.09
2022-11-05T16:50:51.680Z,101350.25
2022-11-05T16:53:21.042Z,101338.09
2022-11-05T16:55:50.485Z,101343.56
2022-11-05T16:58:22.815Z,101352.41
2022-11-05T17:01:13.030Z,101347.69
2022-11-05T17:03:42.007Z,101346.75
2022-11-05T17:06:11.011Z,101355.53
2022-11-05T17:08:40.119Z,101359.53
2022-11-05T17:11:10.850Z,101359.09
2022-11-05T17:13:40.095Z,101366.09
2022-11-05T17:16:13.205Z,101362.50
2022-11-05T17:18:43.296Z,101363.28
2022-11-05T17:21:14.068Z,101359.88
2022-11-05T17:23:43.197Z,101366.28
2022-11-05T17:26:13.647Z,101368.28
2022-11-05T17:28:43.055Z,101370.25
2022-11-05T17:31:15.399Z,101370.66
2022-11-05T17:33:44.580Z,101378.47
2022-11-05T17:36:16.412Z,101383.69
2022-11-05T17:38:45.963Z,101381.19
2022-11-05T17:41:17.347Z,101380.34
2022-11-05T17:43:46.694Z,101379.91
2022-11-05T17:46:20.135Z,101378.25
2022-11-05T17:48:49.401Z,101376.56
2022-11-05T17:51:20.182Z,101371.03
2022-11-05T17:53:50.022Z,101380.97
2022-11-05T17:56:33.567Z,101376.25
2022-11-05T17:59:04.454Z,101373.53
2022-11-05T18:01:37.268Z,101382.16
2022-11-05T18:04:09.070Z,101378.25
2022-11-05T18:06:38.550Z,101383.72
2022-11-05T18:09:08.649Z,101393.56
2022-11-05T18:11:38.365Z,101387.03
2022-11-05T18:14:08.840Z,101393.16
2022-11-05T18:16:39.234Z,101379.09
2022-11-05T18:19:08.655Z,101370.84
2022-11-05T18:21:37.579Z,101382.03
2022-11-05T18:24:09.784Z,101378.09
2022-11-05T18:26:38.939Z,101370.09
2022-11-05T18:29:08.113Z,101372.38
2022-11-05T18:31:38.438Z,101369.38
2022-11-05T18:34:07.733Z,101374.03
2022-11-05T18:36:37.099Z,101371.28
2022-11-05T18:39:08.441Z,101375.53
2022-11-05T18:41:37.418Z,101376.56
2022-11-05T18:44:06.644Z,101377.19
2022-11-05T18:46:57.254Z,101375.28
2022-11-05T18:49:27.103Z,101367.53
2022-11-05T18:51:56.119Z,101358.78
2022-11-05T18:54:25.207Z,101359.38
2022-11-05T18:56:54.133Z,101358.34
2022-11-05T18:59:39.764Z,101358.22
2022-11-05T19:02:09.967Z,101342.09
2022-11-05T19:04:46.860Z,101350.59
2022-11-05T19:07:29.909Z,101349.44
2022-11-05T19:09:58.863Z,101359.69
2022-11-05T19:12:27.959Z,101366.22
2022-11-05T19:15:02.073Z,101362.22
2022-11-05T19:17:33.893Z,101365.94
2022-11-05T19:20:05.209Z,101363.28
2022-11-05T19:22:34.661Z,101361.28
2022-11-05T19:25:03.683Z,101363.38
2022-11-05T19:27:32.680Z,101360.22
2022-11-05T19:30:01.634Z,101351.22
2022-11-05T19:32:30.867Z,101356.44
2022-11-05T19:34:59.825Z,101364.75
2022-11-05T19:37:30.119Z,101356.72
2022-11-05T19:39:59.091Z,101356.41
2022-11-05T19:42:29.166Z,101356.94
2022-11-05T19:45:06.907Z,101361.97
2022-11-05T19:47:45.947Z,101363.25
2022-11-05T19:50:14.925Z,101369.47
2022-11-05T19:52:45.362Z,101370.63
2022-11-05T19:55:14.320Z,101355.06
2022-11-05T19:57:43.808Z,101365.63
2022-11-05T20:00:13.881Z,101365.94
2022-11-05T20:02:46.160Z,101374.09
2022-11-05T20:05:15.892Z,101362.78
2022-11-05T20:07:51.420Z,101368.63
2022-11-05T20:10:24.436Z,101366.34
2022-11-05T20:12:53.362Z,101374.09
2022-11-05T20:15:22.375Z,101375.34
2022-11-05T20:17:52.309Z,101361.53
2022-11-05T20:20:21.809Z,101375.03
2022-11-05T20:22:53.338Z,101368.00
2022-11-05T20:25:22.351Z,101358.75
2022-11-05T20:27:51.410Z,101364.31
2022-11-05T20:30:20.463Z,101364.75
2022-11-05T20:32:53.609Z,101362.91
2022-11-05T20:35:23.080Z,101363.53
2022-11-05T20:37:54.354Z,101359.44
2022-11-05T20:40:23.439Z,101357.31
2022-11-05T20:42:52.383Z,101364.69
2022-11-05T20:45:21.365Z,101367.38
2022-11-05T20:47:50.389Z,101366.25
2022-11-05T20:50:19.491Z,101372.31
2022-11-05T20:52:48.993Z,101358.38
2022-11-05T20:55:19.312Z,101363.41
2022-11-05T20:57:48.247Z,101364.06
2022-11-05T21:00:17.969Z,101361.84
2022-11-05T21:02:47.112Z,101360.47
2022-11-05T21:05:16.512Z,101349.28
2022-11-05T21:07:45.439Z,101354.59
2022-11-05T21:10:14.344Z,101364.06
2022-11-05T21:12:45.783Z,101361.22
2022-11-05T21:15:14.915Z,101359.16
2022-11-05T21:17:44.829Z,101367.09
2022-11-05T21:20:13.840Z,101371.50
2022-11-05T21:22:43.240Z,101375.78
2022-11-05T21:25:12.382Z,101370.34
2022-11-05T21:27:43.739Z,101369.72
2022-11-05T21:30:15.197Z,101369.50
2022-11-05T21:32:44.153Z,101367.19
2022-11-05T21:35:13.094Z,101367.19
2022-11-05T21:37:42.018Z,101366.38
2022-11-05T21:40:12.435Z,101351.72
2022-11-05T21:42:41.341Z,101357.16
2022-11-05T21:45:11.254Z,101355.72
2022-11-05T21:47:41.501Z,101362.78
2022-11-05T21:50:10.688Z,101353.31
2022-11-05T21:52:57.429Z,101349.31
2022-11-05T21:55:43.873Z,101352.38
2022-11-05T21:58:33.373Z,101340.31
2022-11-05T22:01:03.303Z,101344.94
2022-11-05T22:03:34.553Z,101347.31
2022-11-05T22:06:03.621Z,101342.00
2022-11-05T22:08:32.957Z,101345.53
2022-11-05T22:11:04.717Z,101349.63
2022-11-05T22:13:33.800Z,101338.34
2022-11-05T22:16:02.777Z,101334.88
2022-11-05T22:18:33.115Z,101334.06
2022-11-05T22:21:02.243Z,101337.41
2022-11-05T22:23:31.314Z,101336.88
2022-11-05T22:26:03.544Z,101326.41
2022-11-05T22:28:32.939Z,101317.41
2022-11-05T22:31:01.926Z,101318.91
2022-11-05T22:33:33.191Z,101322.38
2022-11-05T22:36:04.163Z,101323.09
2022-11-05T22:38:33.199Z,101331.47
2022-11-05T22:41:07.749Z,101330.00
2022-11-05T22:43:37.086Z,101318.63
2022-11-05T22:46:07.152Z,101331.16
2022-11-05T22:48:39.044Z,101318.72
2022-11-05T22:51:10.192Z,101327.81
2022-11-05T22:53:40.341Z,101322.78
2022-11-05T22:56:11.550Z,101311.59
2022-11-05T22:58:40.712Z,101315.38
2022-11-05T23:01:12.138Z,101304.59
2022-11-05T23:03:44.100Z,101318.91
2022-11-05T23:06:30.836Z,101314.63
2022-11-05T23:09:18.220Z,101308.78
2022-11-05T23:11:50.046Z,101308.78
2022-11-05T23:14:19.086Z,101310.47
2022-11-05T23:17:05.460Z,101312.00
2022-11-05T23:19:53.397Z,101309.72
2022-11-05T23:22:42.354Z,101308.38
2022-11-05T23:25:13.373Z,101306.59
2022-11-05T23:27:42.700Z,101310.47
2022-11-05T23:30:16.139Z,101309.53
2022-11-05T23:32:44.867Z,101300.75
2022-11-05T23:35:15.790Z,101288.59
2022-11-05T23:38:02.539Z,101290.59
2022-11-05T23:40:52.981Z,101286.94
2022-11-05T23:43:39.596Z,101289.66
2022-11-05T23:46:27.585Z,101278.56
2022-11-05T23:48:56.500Z,101282.28
2022-11-05T23:51:26.752Z,101284.44
2022-11-05T23:53:55.683Z,101280.13
2022-11-05T23:56:24.649Z,101269.06
2022-11-05T23:58:53.594Z,101268.22
